Time;durP1;ratioP1;P1;durP2;ratioP2;P2;SDS_P1;SDS_P2;PMS_P1;PMS_P2;Temp;Humidity;BMP_temperature;BMP_pressure;BME280_temperature;BME280_humidity;BME280_pressure;Samples;Min_cycle;Max_cycle;Signal;HPM_P1;HPM_P2
2022/08/28 00:01:25;;;;;;;20.10;18.03;;;;;;;;;;5038623;28;20182;-75
2022/08/28 00:03:50;;;;;;;19.23;17.23;;;;;;;;;;5031465;28;20174;-75
2022/08/28 00:06:15;;;;;;;18.93;16.43;;;;;;;;;;5031837;28;20182;-75
2022/08/28 00:08:40;;;;;;;18.77;16.70;;;;;;;;;;5031984;28;20182;-75
2022/08/28 00:11:06;;;;;;;16.80;15.17;;;;;;;;;;5039872;28;20211;-75
2022/08/28 00:13:31;;;;;;;16.80;14.90;;;;;;;;;;5043282;28;20182;-75
2022/08/28 00:15:59;;;;;;;15.17;13.67;;;;;;;;;;5051715;28;20256;-75
2022/08/28 00:18:25;;;;;;;18.17;16.37;;;;;;;;;;5038794;28;20174;-75
2022/08/28 00:20:50;;;;;;;14.93;13.53;;;;;;;;;;5049710;28;20173;-75
2022/08/28 00:23:16;;;;;;;16.73;15.03;;;;;;;;;;5031382;28;20249;-75
2022/08/28 00:25:41;;;;;;;17.23;15.53;;;;;;;;;;5032351;28;20249;-75
2022/08/28 00:28:08;;;;;;;14.70;13.40;;;;;;;;;;5031385;28;20182;-75
2022/08/28 00:31:00;;;;;;;14.37;12.97;;;;;;;;;;5031610;28;20186;-75
2022/08/28 00:33:28;;;;;;;13.77;12.47;;;;;;;;;;5035910;28;21335;-75
2022/08/28 00:35:54;;;;;;;14.60;13.17;;;;;;;;;;5035847;28;20201;-75
2022/08/28 00:38:20;;;;;;;13.83;12.43;;;;;;;;;;5030642;28;20181;-75
2022/08/28 00:40:47;;;;;;;13.10;11.80;;;;;;;;;;5038401;28;20163;-75
2022/08/28 00:43:23;;;;;;;12.00;10.60;;;;;;;;;;5044850;28;20190;-75
2022/08/28 00:45:48;;;;;;;13.80;12.27;;;;;;;;;;5045160;28;20181;-75
2022/08/28 00:48:13;;;;;;;13.63;11.67;;;;;;;;;;5042031;28;20285;-75
2022/08/28 00:53:23;;;;;;;12.87;11.53;;;;;;;;;;5033439;28;20195;-75
2022/08/28 00:55:49;;;;;;;13.07;11.70;;;;;;;;;;5051710;28;20194;-75
2022/08/28 00:58:14;;;;;;;12.67;11.47;;;;;;;;;;5034077;28;20206;-75
2022/08/28 01:00:40;;;;;;;13.00;11.63;;;;;;;;;;5051703;28;20186;-75
2022/08/28 01:03:06;;;;;;;14.23;12.73;;;;;;;;;;5033888;28;20170;-75
2022/08/28 01:05:33;;;;;;;15.50;13.53;;;;;;;;;;5051708;28;20178;-75
2022/08/28 01:07:59;;;;;;;16.10;13.67;;;;;;;;;;5036345;28;20237;-75
2022/08/28 01:10:26;;;;;;;14.20;12.37;;;;;;;;;;5053766;28;20179;-75
2022/08/28 01:12:55;;;;;;;13.20;11.80;;;;;;;;;;5071654;28;20180;-75
2022/08/28 01:15:23;;;;;;;12.70;11.50;;;;;;;;;;5052027;28;20208;-74
2022/08/28 01:17:50;;;;;;;13.80;12.43;;;;;;;;;;5053266;28;20166;-75
2022/08/28 01:20:17;;;;;;;14.53;13.10;;;;;;;;;;5057764;28;20180;-75
2022/08/28 01:22:51;;;;;;;17.20;13.30;;;;;;;;;;5066734;28;20177;-75
2022/08/28 01:25:18;;;;;;;13.70;12.40;;;;;;;;;;5070600;28;20181;-74
2022/08/28 01:27:44;;;;;;;15.13;13.63;;;;;;;;;;5053137;28;20174;-74
2022/08/28 01:30:11;;;;;;;17.07;13.90;;;;;;;;;;5071477;28;20228;-75
2022/08/28 01:32:37;;;;;;;15.13;13.63;;;;;;;;;;5065787;28;20189;-75
2022/08/28 01:35:05;;;;;;;14.63;13.17;;;;;;;;;;5045269;28;20196;-75
2022/08/28 01:37:30;;;;;;;14.40;13.03;;;;;;;;;;5053322;28;20177;-75
2022/08/28 01:39:56;;;;;;;13.70;12.40;;;;;;;;;;5053436;28;20181;-75
2022/08/28 01:42:21;;;;;;;14.10;12.27;;;;;;;;;;5038780;28;20431;-75
2022/08/28 01:44:46;;;;;;;14.27;12.83;;;;;;;;;;5041923;28;20264;-75
2022/08/28 01:47:15;;;;;;;15.80;14.03;;;;;;;;;;5035785;28;20178;-75
2022/08/28 01:49:40;;;;;;;13.37;12.17;;;;;;;;;;5049894;28;20181;-75
2022/08/28 01:52:06;;;;;;;16.53;14.90;;;;;;;;;;5051382;28;20165;-75
2022/08/28 01:54:32;;;;;;;14.13;12.53;;;;;;;;;;5050400;28;20307;-75
2022/08/28 01:56:57;;;;;;;15.83;14.20;;;;;;;;;;5032969;28;20296;-75
2022/08/28 01:59:22;;;;;;;16.33;14.63;;;;;;;;;;5038617;28;20248;-75
2022/08/28 02:01:47;;;;;;;15.87;14.03;;;;;;;;;;5052968;28;20202;-75
2022/08/28 02:04:13;;;;;;;15.90;14.30;;;;;;;;;;5052865;28;20181;-75
2022/08/28 02:06:38;;;;;;;16.43;14.50;;;;;;;;;;5070650;28;20181;-75
2022/08/28 02:09:04;;;;;;;18.80;15.50;;;;;;;;;;5070524;28;20256;-75
2022/08/28 02:11:30;;;;;;;15.53;13.93;;;;;;;;;;5040841;28;20212;-75
2022/08/28 02:13:56;;;;;;;18.23;14.87;;;;;;;;;;5050275;28;20186;-75
2022/08/28 02:16:21;;;;;;;17.87;16.03;;;;;;;;;;5033217;28;20214;-75
2022/08/28 02:18:46;;;;;;;16.33;14.67;;;;;;;;;;5051585;28;20232;-75
2022/08/28 02:21:12;;;;;;;18.27;15.63;;;;;;;;;;5050442;28;20178;-75
2022/08/28 02:23:38;;;;;;;16.57;14.73;;;;;;;;;;5032453;28;20212;-75
2022/08/28 02:26:03;;;;;;;16.37;14.80;;;;;;;;;;5050743;28;20180;-75
2022/08/28 02:28:28;;;;;;;17.63;15.73;;;;;;;;;;5032737;28;20188;-75
2022/08/28 02:30:54;;;;;;;16.23;14.30;;;;;;;;;;5050657;28;20260;-75
2022/08/28 02:33:22;;;;;;;15.47;13.60;;;;;;;;;;5039029;28;20208;-75
2022/08/28 02:35:48;;;;;;;17.30;15.30;;;;;;;;;;5056168;28;20196;-75
2022/08/28 02:38:14;;;;;;;15.07;13.57;;;;;;;;;;5050351;28;20172;-75
2022/08/28 02:40:40;;;;;;;22.10;18.07;;;;;;;;;;5034039;28;20177;-75
2022/08/28 02:43:06;;;;;;;16.80;15.10;;;;;;;;;;5058205;28;20176;-75
2022/08/28 02:45:31;;;;;;;15.37;13.77;;;;;;;;;;5057839;28;20175;-75
2022/08/28 02:47:56;;;;;;;17.97;14.77;;;;;;;;;;5041202;28;20180;-75
2022/08/28 02:50:22;;;;;;;15.87;14.17;;;;;;;;;;5046681;28;20189;-75
2022/08/28 02:52:48;;;;;;;15.30;13.70;;;;;;;;;;5032887;28;20163;-75
2022/08/28 02:55:14;;;;;;;18.30;15.37;;;;;;;;;;5032225;28;20233;-75
2022/08/28 02:57:41;;;;;;;16.80;14.90;;;;;;;;;;5032329;28;20179;-75
2022/08/28 03:00:09;;;;;;;18.70;15.47;;;;;;;;;;5050987;28;20193;-75
2022/08/28 03:02:35;;;;;;;16.50;14.73;;;;;;;;;;5052927;28;20237;-75
2022/08/28 03:05:00;;;;;;;18.17;16.23;;;;;;;;;;5036178;28;20175;-75
2022/08/28 03:07:26;;;;;;;17.60;15.80;;;;;;;;;;5054513;28;20184;-74
2022/08/28 03:09:52;;;;;;;16.03;14.30;;;;;;;;;;5053597;28;20237;-75
2022/08/28 03:12:22;;;;;;;17.40;14.83;;;;;;;;;;5036256;28;20531;-75
2022/08/28 03:14:48;;;;;;;20.07;17.07;;;;;;;;;;5035736;28;20210;-76
2022/08/28 03:17:13;;;;;;;17.40;15.63;;;;;;;;;;5052539;28;20176;-75
2022/08/28 03:19:38;;;;;;;17.97;16.17;;;;;;;;;;5036094;28;20166;-75
2022/08/28 03:22:04;;;;;;;18.30;15.03;;;;;;;;;;5063474;28;20177;-75
2022/08/28 03:24:29;;;;;;;19.53;15.80;;;;;;;;;;5052671;28;20243;-75
2022/08/28 03:26:54;;;;;;;16.03;14.23;;;;;;;;;;5036038;28;20170;-75
2022/08/28 03:29:19;;;;;;;15.33;13.73;;;;;;;;;;5053560;28;20172;-75
2022/08/28 03:31:45;;;;;;;18.23;16.43;;;;;;;;;;5053950;28;20201;-75
2022/08/28 03:34:10;;;;;;;18.40;15.83;;;;;;;;;;5073271;28;20198;-75
2022/08/28 03:36:35;;;;;;;16.53;14.57;;;;;;;;;;5055306;28;20207;-75
2022/08/28 03:39:02;;;;;;;23.23;18.80;;;;;;;;;;5073052;28;20174;-75
2022/08/28 03:41:29;;;;;;;19.00;17.20;;;;;;;;;;5066997;28;20179;-74
2022/08/28 03:43:58;;;;;;;16.30;14.60;;;;;;;;;;5073122;28;20181;-75
2022/08/28 03:46:25;;;;;;;17.77;15.00;;;;;;;;;;5073115;28;20255;-74
2022/08/28 03:48:51;;;;;;;19.77;16.37;;;;;;;;;;5055068;28;20319;-75
2022/08/28 03:51:17;;;;;;;19.50;16.43;;;;;;;;;;5055223;28;20501;-75
2022/08/28 03:53:43;;;;;;;16.17;13.87;;;;;;;;;;5072672;28;20224;-75
2022/08/28 03:56:16;;;;;;;36.33;15.83;;;;;;;;;;5055183;28;20354;-75
2022/08/28 03:58:42;;;;;;;19.33;17.27;;;;;;;;;;5047465;28;20204;-75
2022/08/28 04:01:07;;;;;;;18.30;16.20;;;;;;;;;;5035342;28;20264;-75
2022/08/28 04:03:32;;;;;;;17.33;15.40;;;;;;;;;;5035283;28;20174;-75
2022/08/28 04:05:57;;;;;;;22.23;18.10;;;;;;;;;;5052628;28;20231;-75
2022/08/28 04:08:23;;;;;;;17.60;15.63;;;;;;;;;;5051728;28;20169;-75
2022/08/28 04:10:49;;;;;;;21.03;16.50;;;;;;;;;;5043360;28;20208;-75
2022/08/28 04:13:15;;;;;;;18.67;16.30;;;;;;;;;;5045467;28;20174;-75
2022/08/28 04:15:40;;;;;;;42.93;19.50;;;;;;;;;;5054672;28;20397;-74
2022/08/28 04:18:06;;;;;;;26.77;19.17;;;;;;;;;;5072575;28;20163;-75
2022/08/28 04:20:32;;;;;;;18.63;15.83;;;;;;;;;;5050743;28;20182;-75
2022/08/28 04:22:57;;;;;;;23.87;15.20;;;;;;;;;;5043566;28;20176;-75
2022/08/28 04:25:22;;;;;;;16.03;14.53;;;;;;;;;;5055018;28;20184;-75
2022/08/28 04:27:48;;;;;;;16.30;13.73;;;;;;;;;;5054866;28;20184;-75
2022/08/28 04:30:13;;;;;;;20.37;17.37;;;;;;;;;;5054691;28;20173;-75
2022/08/28 04:32:38;;;;;;;21.93;17.40;;;;;;;;;;5054130;28;20191;-75
2022/08/28 04:35:05;;;;;;;21.63;18.40;;;;;;;;;;5037686;28;20259;-75
2022/08/28 04:37:30;;;;;;;27.67;19.70;;;;;;;;;;5054086;28;20178;-75
2022/08/28 04:39:55;;;;;;;24.33;17.57;;;;;;;;;;5054119;28;20173;-74
2022/08/28 04:42:21;;;;;;;20.17;18.07;;;;;;;;;;5064417;28;20173;-75
2022/08/28 04:44:46;;;;;;;22.10;15.73;;;;;;;;;;5052300;28;20174;-75
2022/08/28 04:47:11;;;;;;;23.30;17.87;;;;;;;;;;5042920;28;20222;-75
2022/08/28 04:49:37;;;;;;;22.03;18.23;;;;;;;;;;5039682;28;20173;-75
2022/08/28 04:52:02;;;;;;;19.63;15.83;;;;;;;;;;5034252;28;20222;-75
2022/08/28 04:54:28;;;;;;;17.83;14.80;;;;;;;;;;5031017;28;20229;-74
2022/08/28 04:56:53;;;;;;;17.80;15.20;;;;;;;;;;5030909;28;20331;-75
2022/08/28 04:59:18;;;;;;;21.30;17.53;;;;;;;;;;5032199;28;20170;-75
2022/08/28 05:01:43;;;;;;;19.30;17.20;;;;;;;;;;5031006;28;20232;-75
2022/08/28 05:04:10;;;;;;;25.53;17.50;;;;;;;;;;5030890;28;20189;-75
2022/08/28 05:06:35;;;;;;;20.70;15.03;;;;;;;;;;5030843;28;20277;-75
2022/08/28 05:09:01;;;;;;;16.77;15.03;;;;;;;;;;5031846;28;20264;-75
2022/08/28 05:11:27;;;;;;;82.30;20.80;;;;;;;;;;5031890;28;20264;-75
2022/08/28 05:13:53;;;;;;;41.83;17.10;;;;;;;;;;5030647;28;20179;-75
2022/08/28 05:16:19;;;;;;;36.70;19.70;;;;;;;;;;5031809;28;20252;-75
2022/08/28 05:18:45;;;;;;;169.03;21.77;;;;;;;;;;5032585;28;20227;-75
2022/08/28 05:21:11;;;;;;;32.80;19.27;;;;;;;;;;5048897;28;20169;-75
2022/08/28 05:23:36;;;;;;;19.10;15.30;;;;;;;;;;5047040;28;20178;-74
2022/08/28 05:26:02;;;;;;;15.90;14.23;;;;;;;;;;5050340;28;20177;-75
2022/08/28 05:28:27;;;;;;;16.10;13.77;;;;;;;;;;5050441;28;20203;-75
2022/08/28 05:30:52;;;;;;;18.90;13.33;;;;;;;;;;5049326;28;20177;-75
2022/08/28 05:33:18;;;;;;;18.93;15.20;;;;;;;;;;5046669;28;20181;-75
2022/08/28 05:35:44;;;;;;;71.33;21.07;;;;;;;;;;5035270;28;20223;-75
2022/08/28 05:38:11;;;;;;;17.03;14.83;;;;;;;;;;5051161;28;20181;-75
2022/08/28 05:40:43;;;;;;;44.47;17.70;;;;;;;;;;5046376;28;20182;-74
2022/08/28 05:43:09;;;;;;;41.97;19.83;;;;;;;;;;5033843;28;20315;-75
2022/08/28 05:45:34;;;;;;;25.53;18.73;;;;;;;;;;5030008;28;20206;-74
2022/08/28 05:47:59;;;;;;;84.87;20.50;;;;;;;;;;5029582;28;20185;-75
2022/08/28 05:50:25;;;;;;;38.77;17.70;;;;;;;;;;5029916;28;20187;-75
2022/08/28 05:52:50;;;;;;;20.43;17.73;;;;;;;;;;5030760;28;20231;-75
2022/08/28 05:55:15;;;;;;;31.67;18.47;;;;;;;;;;5047261;28;20234;-75
2022/08/28 05:57:40;;;;;;;46.27;18.77;;;;;;;;;;5037404;28;20185;-75
2022/08/28 06:00:08;;;;;;;18.83;16.63;;;;;;;;;;5033078;28;20217;-75
2022/08/28 06:02:33;;;;;;;20.83;18.17;;;;;;;;;;5032762;28;20176;-75
2022/08/28 06:04:59;;;;;;;16.97;15.23;;;;;;;;;;5050534;28;20174;-75
2022/08/28 06:07:24;;;;;;;31.63;17.57;;;;;;;;;;5050423;28;20251;-75
2022/08/28 06:09:50;;;;;;;19.43;17.43;;;;;;;;;;5032845;28;20173;-75
2022/08/28 06:12:15;;;;;;;17.63;15.90;;;;;;;;;;5050230;28;20188;-75
2022/08/28 06:14:40;;;;;;;23.27;16.83;;;;;;;;;;5037616;28;20200;-75
2022/08/28 06:17:06;;;;;;;18.37;16.27;;;;;;;;;;5032468;28;20173;-75
2022/08/28 06:19:32;;;;;;;24.10;17.77;;;;;;;;;;5032460;28;20316;-74
2022/08/28 06:21:58;;;;;;;26.87;18.17;;;;;;;;;;5041939;28;20242;-75
2022/08/28 06:24:24;;;;;;;24.03;17.03;;;;;;;;;;5036209;28;20258;-75
2022/08/28 06:26:51;;;;;;;21.70;19.33;;;;;;;;;;5070129;28;20180;-75
2022/08/28 06:29:18;;;;;;;17.43;15.53;;;;;;;;;;5052226;28;20219;-75
2022/08/28 06:31:44;;;;;;;30.80;17.63;;;;;;;;;;5062669;28;20177;-75
2022/08/28 06:34:09;;;;;;;30.67;20.10;;;;;;;;;;5056855;28;20416;-75
2022/08/28 06:36:35;;;;;;;20.30;18.27;;;;;;;;;;5073497;28;20258;-75
2022/08/28 06:39:03;;;;;;;21.27;17.00;;;;;;;;;;5056521;28;20236;-75
2022/08/28 06:41:28;;;;;;;19.83;17.73;;;;;;;;;;5052822;28;20170;-75
2022/08/28 06:43:54;;;;;;;17.87;16.03;;;;;;;;;;5054289;28;20382;-75
2022/08/28 06:46:20;;;;;;;28.00;18.50;;;;;;;;;;5056076;28;20173;-75
2022/08/28 06:48:45;;;;;;;38.00;17.03;;;;;;;;;;5051442;28;20403;-75
2022/08/28 06:51:11;;;;;;;18.60;15.50;;;;;;;;;;5056464;28;20183;-75
2022/08/28 06:53:37;;;;;;;16.73;15.13;;;;;;;;;;5056066;28;20282;-75
2022/08/28 06:56:07;;;;;;;42.17;16.60;;;;;;;;;;5055837;28;20206;-74
2022/08/28 06:58:33;;;;;;;17.30;15.53;;;;;;;;;;5055982;28;20178;-75
2022/08/28 07:01:06;;;;;;;16.00;14.50;;;;;;;;;;5056384;28;20177;-75
2022/08/28 07:03:32;;;;;;;20.80;15.70;;;;;;;;;;5073787;28;20249;-75
2022/08/28 07:05:58;;;;;;;16.43;14.77;;;;;;;;;;5046380;28;20270;-75
2022/08/28 07:08:27;;;;;;;21.40;16.10;;;;;;;;;;5053567;28;20285;-74
2022/08/28 07:10:52;;;;;;;17.13;15.13;;;;;;;;;;5036387;28;20171;-75
2022/08/28 07:13:18;;;;;;;21.70;16.13;;;;;;;;;;5052805;28;20228;-75
2022/08/28 07:15:43;;;;;;;25.57;16.43;;;;;;;;;;5036210;28;20203;-75
2022/08/28 07:18:08;;;;;;;51.67;19.80;;;;;;;;;;5052697;28;20180;-75
2022/08/28 07:20:33;;;;;;;29.40;14.67;;;;;;;;;;5052138;28;20169;-74
2022/08/28 07:22:59;;;;;;;27.07;16.53;;;;;;;;;;5048497;28;20191;-75
2022/08/28 07:25:25;;;;;;;22.40;16.07;;;;;;;;;;5036674;28;20241;-75
2022/08/28 07:27:50;;;;;;;21.60;19.30;;;;;;;;;;5035853;28;20181;-75
2022/08/28 07:30:17;;;;;;;21.20;17.40;;;;;;;;;;5035836;28;20188;-75
2022/08/28 07:32:42;;;;;;;20.97;18.77;;;;;;;;;;5044976;28;20179;-75
2022/08/28 07:35:08;;;;;;;22.37;18.70;;;;;;;;;;5064571;28;20216;-75
2022/08/28 07:37:33;;;;;;;20.47;18.20;;;;;;;;;;5035288;28;20233;-74
2022/08/28 07:39:58;;;;;;;20.13;15.93;;;;;;;;;;5037214;28;20186;-75
2022/08/28 07:45:08;;;;;;;21.63;18.53;;;;;;;;;;5073722;28;20204;-75
2022/08/28 07:47:37;;;;;;;21.00;17.70;;;;;;;;;;5054074;28;20182;-75
2022/08/28 07:50:02;;;;;;;22.90;18.13;;;;;;;;;;5072864;28;20182;-75
2022/08/28 07:52:28;;;;;;;17.00;15.30;;;;;;;;;;5072975;28;20181;-75
2022/08/28 07:54:54;;;;;;;20.90;17.20;;;;;;;;;;5072806;28;20221;-75
2022/08/28 07:57:20;;;;;;;18.33;15.83;;;;;;;;;;5060189;28;20295;-75
2022/08/28 07:59:45;;;;;;;18.37;14.83;;;;;;;;;;5035389;28;20171;-75
2022/08/28 08:02:11;;;;;;;15.80;14.20;;;;;;;;;;5052804;28;20178;-74
2022/08/28 08:04:36;;;;;;;18.93;16.70;;;;;;;;;;5035439;28;20175;-75
2022/08/28 08:07:02;;;;;;;16.77;13.93;;;;;;;;;;5035303;28;20208;-75
2022/08/28 08:09:28;;;;;;;16.47;14.57;;;;;;;;;;5035119;28;20170;-75
2022/08/28 08:11:53;;;;;;;16.40;13.97;;;;;;;;;;5035492;28;20187;-75
2022/08/28 08:14:19;;;;;;;18.87;16.60;;;;;;;;;;5053301;28;20209;-75
2022/08/28 08:16:45;;;;;;;19.37;16.37;;;;;;;;;;5034635;28;20256;-75
2022/08/28 08:19:13;;;;;;;18.27;15.50;;;;;;;;;;5039581;28;20194;-75
2022/08/28 08:21:40;;;;;;;18.10;15.40;;;;;;;;;;5048418;28;20171;-75
2022/08/28 08:24:05;;;;;;;17.83;15.17;;;;;;;;;;5067927;28;20230;-75
2022/08/28 08:26:31;;;;;;;18.67;16.53;;;;;;;;;;5051360;28;20179;-75
2022/08/28 08:28:56;;;;;;;19.70;17.37;;;;;;;;;;5051593;28;20266;-74
2022/08/28 08:31:25;;;;;;;20.17;18.07;;;;;;;;;;5048072;28;20182;-74
2022/08/28 08:33:52;;;;;;;17.70;15.80;;;;;;;;;;5047614;28;20427;-75
2022/08/28 08:36:19;;;;;;;18.77;15.70;;;;;;;;;;5042411;28;20205;-75
2022/08/28 08:38:44;;;;;;;17.17;15.33;;;;;;;;;;5052248;28;20179;-74
2022/08/28 08:41:21;;;;;;;18.67;15.40;;;;;;;;;;5054219;28;20181;-75
2022/08/28 08:44:05;;;;;;;17.67;15.77;;;;;;;;;;5040288;28;20184;-75
2022/08/28 08:46:37;;;;;;;20.87;18.60;;;;;;;;;;5052246;28;20207;-75
2022/08/28 08:49:09;;;;;;;21.50;19.30;;;;;;;;;;5043166;28;20219;-75
2022/08/28 08:51:38;;;;;;;17.80;15.67;;;;;;;;;;5052124;28;20264;-75
2022/08/28 08:54:05;;;;;;;17.53;15.67;;;;;;;;;;5034258;28;20236;-75
2022/08/28 08:56:31;;;;;;;19.57;17.57;;;;;;;;;;5034063;28;20216;-75
2022/08/28 08:59:00;;;;;;;19.70;16.27;;;;;;;;;;5033083;28;20270;-75
2022/08/28 09:01:31;;;;;;;23.30;18.93;;;;;;;;;;5033597;28;20175;-75
2022/08/28 09:03:59;;;;;;;23.17;17.53;;;;;;;;;;5053067;28;20165;-75
2022/08/28 09:06:24;;;;;;;17.13;15.33;;;;;;;;;;5053946;28;20186;-75
2022/08/28 09:08:52;;;;;;;17.60;15.53;;;;;;;;;;5071842;28;20172;-75
2022/08/28 09:11:30;;;;;;;17.97;14.93;;;;;;;;;;5053622;28;20177;-75
2022/08/28 09:14:10;;;;;;;21.63;16.30;;;;;;;;;;5071545;28;20170;-75
2022/08/28 09:16:37;;;;;;;16.87;15.10;;;;;;;;;;5053577;28;20240;-75
2022/08/28 09:19:03;;;;;;;19.30;15.73;;;;;;;;;;5071433;28;20180;-75
2022/08/28 09:21:31;;;;;;;19.60;16.87;;;;;;;;;;5068567;28;20166;-75
2022/08/28 09:23:59;;;;;;;17.03;15.07;;;;;;;;;;5048237;28;20162;-75
2022/08/28 09:26:24;;;;;;;22.17;16.27;;;;;;;;;;5034432;28;20181;-74
2022/08/28 09:29:03;;;;;;;17.23;15.47;;;;;;;;;;5051281;28;20178;-75
2022/08/28 09:31:32;;;;;;;17.17;13.83;;;;;;;;;;5033348;28;20170;-75
2022/08/28 09:34:16;;;;;;;15.03;13.37;;;;;;;;;;5044932;28;20200;-75
2022/08/28 09:36:42;;;;;;;19.83;16.77;;;;;;;;;;5042321;28;20211;-75
2022/08/28 09:39:24;;;;;;;18.03;13.47;;;;;;;;;;5042176;28;20172;-75
2022/08/28 09:45:03;;;;;;;17.87;14.30;;;;;;;;;;5070911;28;20190;-75
2022/08/28 09:47:58;;;;;;;15.20;13.50;;;;;;;;;;5070763;28;20163;-75
2022/08/28 09:50:23;;;;;;;18.17;14.07;;;;;;;;;;5049391;28;20218;-75
2022/08/28 09:52:49;;;;;;;19.03;15.07;;;;;;;;;;5052959;28;20180;-75
2022/08/28 09:55:18;;;;;;;14.77;13.10;;;;;;;;;;5045561;28;20235;-75
2022/08/28 09:57:45;;;;;;;15.10;13.53;;;;;;;;;;5046217;28;20176;-75
2022/08/28 10:00:11;;;;;;;13.17;11.87;;;;;;;;;;5046592;28;20181;-75
2022/08/28 10:02:41;;;;;;;13.30;11.93;;;;;;;;;;5046218;28;20171;-75
2022/08/28 10:05:15;;;;;;;13.63;11.87;;;;;;;;;;5046368;28;20183;-75
2022/08/28 10:07:40;;;;;;;13.77;12.27;;;;;;;;;;5045728;28;20178;-75
2022/08/28 10:10:08;;;;;;;15.57;13.20;;;;;;;;;;5029974;28;20172;-75
2022/08/28 10:12:46;;;;;;;18.43;13.30;;;;;;;;;;5037736;28;20194;-75
2022/08/28 10:15:14;;;;;;;15.73;13.17;;;;;;;;;;5029465;28;20270;-75
2022/08/28 10:17:42;;;;;;;16.40;13.33;;;;;;;;;;5029347;28;20233;-75
2022/08/28 10:20:10;;;;;;;15.77;14.00;;;;;;;;;;5043244;28;20176;-75
2022/08/28 10:22:47;;;;;;;16.47;12.97;;;;;;;;;;5038689;28;20166;-75
2022/08/28 10:25:15;;;;;;;15.23;13.63;;;;;;;;;;5050061;28;20178;-75
2022/08/28 10:27:40;;;;;;;15.57;13.87;;;;;;;;;;5049423;28;20183;-75
2022/08/28 10:30:08;;;;;;;14.57;12.70;;;;;;;;;;5038466;28;20190;-75
2022/08/28 10:32:33;;;;;;;14.23;12.93;;;;;;;;;;5033204;28;20175;-75
2022/08/28 10:35:07;;;;;;;14.00;12.67;;;;;;;;;;5041946;28;20199;-75
2022/08/28 10:37:41;;;;;;;14.03;11.27;;;;;;;;;;5030383;28;20178;-75
2022/08/28 10:40:27;;;;;;;18.63;13.90;;;;;;;;;;5031172;28;20171;-75
2022/08/28 10:43:01;;;;;;;12.77;11.40;;;;;;;;;;5034817;28;20185;-75
2022/08/28 10:45:27;;;;;;;15.07;13.57;;;;;;;;;;5050785;28;20341;-75
2022/08/28 10:47:56;;;;;;;12.77;11.40;;;;;;;;;;5042286;28;20177;-75
2022/08/28 10:50:24;;;;;;;15.33;13.73;;;;;;;;;;5029316;28;20175;-75
2022/08/28 10:52:54;;;;;;;14.03;12.07;;;;;;;;;;5029013;28;20269;-75
2022/08/28 10:55:46;;;;;;;11.63;10.10;;;;;;;;;;5012602;28;20277;-75
2022/08/28 10:58:14;;;;;;;12.63;10.67;;;;;;;;;;5006340;28;20184;-75
2022/08/28 11:00:41;;;;;;;12.93;10.37;;;;;;;;;;5009416;28;20222;-75
2022/08/28 11:03:09;;;;;;;11.10;9.90;;;;;;;;;;5009733;28;20185;-75
2022/08/28 11:05:54;;;;;;;10.30;9.03;;;;;;;;;;5009438;28;20179;-75
2022/08/28 11:08:39;;;;;;;10.77;9.67;;;;;;;;;;5025345;28;20191;-75
2022/08/28 11:11:10;;;;;;;9.97;9.17;;;;;;;;;;5009051;28;20192;-75
2022/08/28 11:13:38;;;;;;;10.80;8.60;;;;;;;;;;5025655;28;20181;-75
2022/08/28 11:16:10;;;;;;;8.83;8.03;;;;;;;;;;5009285;28;20372;-75
2022/08/28 11:18:36;;;;;;;11.27;8.03;;;;;;;;;;5008900;28;20182;-75
2022/08/28 11:21:01;;;;;;;8.30;7.50;;;;;;;;;;5016006;28;20261;-75
2022/08/28 11:23:34;;;;;;;8.80;7.77;;;;;;;;;;5021174;28;20240;-75
2022/08/28 11:26:02;;;;;;;9.67;8.77;;;;;;;;;;5013942;28;20173;-75
2022/08/28 11:28:34;;;;;;;9.27;8.10;;;;;;;;;;5013946;28;20209;-75
2022/08/28 11:31:02;;;;;;;9.13;8.23;;;;;;;;;;5012600;28;20179;-75
2022/08/28 11:33:33;;;;;;;8.83;8.00;;;;;;;;;;5027859;28;20197;-75
2022/08/28 11:35:58;;;;;;;8.83;7.70;;;;;;;;;;5025439;28;20201;-75
2022/08/28 11:38:42;;;;;;;8.90;8.10;;;;;;;;;;5028709;28;20182;-75
2022/08/28 11:41:27;;;;;;;11.00;8.37;;;;;;;;;;5040765;28;20177;-75
2022/08/28 11:44:14;;;;;;;9.37;8.20;;;;;;;;;;5020244;28;20255;-75
2022/08/28 11:46:39;;;;;;;8.10;7.40;;;;;;;;;;5013522;28;20168;-75
2022/08/28 11:49:25;;;;;;;8.00;7.13;;;;;;;;;;5012731;28;20326;-75
2022/08/28 11:52:02;;;;;;;8.50;7.70;;;;;;;;;;5012761;28;20183;-75
2022/08/28 11:54:46;;;;;;;8.13;7.33;;;;;;;;;;5012812;28;20227;-75
2022/08/28 11:57:14;;;;;;;8.60;7.90;;;;;;;;;;5011956;28;20212;-75
2022/08/28 12:00:09;;;;;;;7.90;7.03;;;;;;;;;;5012277;28;20189;-75
2022/08/28 12:02:38;;;;;;;8.07;7.27;;;;;;;;;;4999304;28;20250;-75
2022/08/28 12:05:05;;;;;;;7.50;6.90;;;;;;;;;;5013462;28;20256;-75
2022/08/28 12:07:34;;;;;;;8.43;7.57;;;;;;;;;;5011949;28;20173;-75
2022/08/28 12:10:00;;;;;;;7.77;7.03;;;;;;;;;;5012039;28;20225;-75
2022/08/28 12:12:31;;;;;;;7.60;6.60;;;;;;;;;;5028234;28;20210;-75
2022/08/28 12:14:58;;;;;;;7.73;7.03;;;;;;;;;;5031806;28;20207;-75
2022/08/28 12:17:27;;;;;;;10.00;8.37;;;;;;;;;;5031649;28;20171;-76
2022/08/28 12:20:02;;;;;;;8.00;7.23;;;;;;;;;;5022581;28;20177;-75
2022/08/28 12:22:42;;;;;;;9.43;8.47;;;;;;;;;;5024711;28;20166;-75
2022/08/28 12:25:14;;;;;;;7.07;6.37;;;;;;;;;;5031208;28;20275;-75
2022/08/28 12:27:39;;;;;;;7.90;7.10;;;;;;;;;;5032623;28;20179;-75
2022/08/28 12:30:05;;;;;;;7.67;7.00;;;;;;;;;;5012582;28;20201;-75
2022/08/28 12:32:33;;;;;;;7.77;7.00;;;;;;;;;;5014589;28;20175;-75
2022/08/28 12:34:58;;;;;;;8.70;7.82;;;;;;;;;;5030960;28;20199;-75
2022/08/28 12:37:42;;;;;;;8.67;7.60;;;;;;;;;;5012323;28;20174;-75
2022/08/28 12:40:14;;;;;;;7.97;7.27;;;;;;;;;;5016029;28;20187;-74
2022/08/28 12:42:44;;;;;;;8.10;7.35;;;;;;;;;;5018178;28;20179;-73
2022/08/28 12:45:15;;;;;;;11.90;7.57;;;;;;;;;;5016058;28;20256;-75
2022/08/28 12:47:42;;;;;;;8.87;6.73;;;;;;;;;;5017700;28;20183;-75
2022/08/28 12:50:24;;;;;;;8.05;7.30;;;;;;;;;;5027714;28;20498;-75
2022/08/28 12:52:50;;;;;;;7.45;6.75;;;;;;;;;;5030728;28;20202;-75
2022/08/28 12:55:17;;;;;;;9.30;7.35;;;;;;;;;;5046664;28;20230;-75
2022/08/28 12:57:45;;;;;;;7.20;6.50;;;;;;;;;;5050793;28;20177;-73
2022/08/28 13:00:14;;;;;;;7.72;7.13;;;;;;;;;;5050767;28;20192;-73
2022/08/28 13:02:39;;;;;;;7.05;6.35;;;;;;;;;;5042931;28;20196;-73
2022/08/28 13:05:06;;;;;;;7.10;6.47;;;;;;;;;;5030869;28;20190;-73
2022/08/28 13:07:39;;;;;;;9.95;7.38;;;;;;;;;;5030426;28;20229;-73
2022/08/28 13:10:15;;;;;;;10.65;7.43;;;;;;;;;;5047493;28;20174;-73
2022/08/28 13:12:40;;;;;;;7.82;7.10;;;;;;;;;;5031834;28;20269;-73
2022/08/28 13:15:06;;;;;;;7.93;7.22;;;;;;;;;;5030147;28;20187;-73
2022/08/28 13:17:42;;;;;;;7.97;7.25;;;;;;;;;;5030517;28;20258;-73
2022/08/28 13:20:09;;;;;;;6.95;6.35;;;;;;;;;;5037908;28;20169;-73
2022/08/28 13:22:38;;;;;;;7.32;6.68;;;;;;;;;;5045274;28;20252;-73
2022/08/28 13:25:04;;;;;;;7.70;6.95;;;;;;;;;;5031687;28;20237;-73
2022/08/28 13:27:29;;;;;;;6.88;6.22;;;;;;;;;;5033036;28;20174;-73
2022/08/28 13:29:55;;;;;;;7.70;6.82;;;;;;;;;;5030401;28;20182;-73
2022/08/28 13:32:20;;;;;;;7.85;7.05;;;;;;;;;;5033888;28;20206;-73
2022/08/28 13:35:04;;;;;;;7.85;7.07;;;;;;;;;;5045201;28;20250;-74
2022/08/28 13:37:38;;;;;;;9.38;7.78;;;;;;;;;;5035749;28;20179;-74
2022/08/28 13:40:04;;;;;;;9.25;6.97;;;;;;;;;;5032379;28;20174;-74
2022/08/28 13:42:29;;;;;;;7.25;6.55;;;;;;;;;;5039746;28;20170;-74
2022/08/28 13:44:55;;;;;;;8.10;7.38;;;;;;;;;;5030365;28;20253;-74
2022/08/28 13:47:20;;;;;;;6.43;5.82;;;;;;;;;;5031141;28;20247;-74
2022/08/28 13:49:46;;;;;;;6.82;6.32;;;;;;;;;;5030226;28;20201;-74
2022/08/28 13:52:11;;;;;;;6.55;6.03;;;;;;;;;;5029866;28;20174;-74
2022/08/28 13:54:37;;;;;;;8.35;6.25;;;;;;;;;;5030072;28;20276;-74
2022/08/28 13:57:02;;;;;;;17.40;14.48;;;;;;;;;;5029561;28;20202;-74
2022/08/28 13:59:28;;;;;;;8.25;7.00;;;;;;;;;;5031170;28;20170;-74
2022/08/28 14:04:49;;;;;;;7.43;6.60;;;;;;;;;;4994013;28;20181;-74
2022/08/28 14:07:15;;;;;;;8.13;7.35;;;;;;;;;;5029463;28;20290;-74
2022/08/28 14:09:41;;;;;;;6.53;5.93;;;;;;;;;;5029695;28;20179;-74
2022/08/28 14:12:07;;;;;;;6.65;5.65;;;;;;;;;;5036707;28;20180;-74
2022/08/28 14:14:32;;;;;;;7.55;6.47;;;;;;;;;;5029904;28;20198;-74
2022/08/28 14:16:58;;;;;;;7.25;6.50;;;;;;;;;;5029268;28;20297;-74
2022/08/28 14:19:23;;;;;;;7.03;6.43;;;;;;;;;;5027466;28;20171;-74
2022/08/28 14:21:48;;;;;;;8.13;7.22;;;;;;;;;;5023461;28;20167;-74
2022/08/28 14:24:13;;;;;;;6.95;6.28;;;;;;;;;;5046250;28;20178;-74
2022/08/28 14:26:39;;;;;;;7.82;7.18;;;;;;;;;;5030745;28;20175;-74
2022/08/28 14:29:06;;;;;;;7.15;6.45;;;;;;;;;;5030095;28;20265;-74
2022/08/28 14:31:34;;;;;;;7.28;6.57;;;;;;;;;;5045894;28;20182;-74
2022/08/28 14:33:59;;;;;;;6.97;6.07;;;;;;;;;;5023023;28;20196;-74
2022/08/28 14:36:26;;;;;;;6.55;5.95;;;;;;;;;;5028140;28;20268;-74
2022/08/28 14:38:53;;;;;;;7.05;6.47;;;;;;;;;;5045920;28;20273;-74